Time;durP1;ratioP1;P1;durP2;ratioP2;P2;SDS_P1;SDS_P2;PMS_P1;PMS_P2;Temp;Humidity;BMP_temperature;BMP_pressure;BME280_temperature;BME280_humidity;BME280_pressure;Samples;Min_cycle;Max_cycle;Signal;HPM_P1;HPM_P2
2022/11/07 00:02:00;;;;;;;7.97;3.00;;;;;;;14.00;75.07;100644.56;5013470;28;20033;-42
2022/11/07 00:04:30;;;;;;;8.68;3.00;;;;;;;14.30;73.83;100647.03;5013352;28;20064;-43
2022/11/07 00:06:55;;;;;;;7.45;2.70;;;;;;;13.94;75.63;100648.06;5013455;28;20536;-42
2022/11/07 00:09:21;;;;;;;8.40;2.83;;;;;;;14.55;73.55;100660.91;5013440;28;20033;-41
2022/11/07 00:11:46;;;;;;;8.68;2.95;;;;;;;14.04;74.93;100652.38;5012964;28;20026;-42
2022/11/07 00:14:13;;;;;;;7.97;3.00;;;;;;;14.44;73.63;100660.09;5013079;28;20030;-41
2022/11/07 00:16:38;;;;;;;7.80;2.97;;;;;;;14.30;74.01;100665.38;5012990;28;20443;-44
2022/11/07 00:19:03;;;;;;;9.50;3.10;;;;;;;14.39;73.47;100654.91;5013607;28;20029;-42
2022/11/07 00:21:29;;;;;;;9.98;3.30;;;;;;;14.37;73.64;100648.78;5012916;28;20026;-42
2022/11/07 00:23:54;;;;;;;6.50;3.00;;;;;;;13.95;74.70;100651.56;5013368;28;20443;-41
2022/11/07 00:26:20;;;;;;;10.50;3.00;;;;;;;14.26;73.71;100644.44;5012953;28;20105;-39
2022/11/07 00:28:45;;;;;;;8.68;3.00;;;;;;;14.14;74.34;100661.97;5013277;28;20470;-39
2022/11/07 00:31:13;;;;;;;8.02;2.72;;;;;;;14.40;73.22;100653.13;5011659;28;20124;-42
2022/11/07 00:33:38;;;;;;;6.72;2.70;;;;;;;14.40;72.76;100647.88;5013528;28;20025;-43
2022/11/07 00:36:04;;;;;;;10.63;3.25;;;;;;;13.97;74.09;100657.66;5013840;28;20034;-43
2022/11/07 00:38:29;;;;;;;9.80;2.88;;;;;;;14.18;73.51;100661.06;5013184;28;20263;-43
2022/11/07 00:40:59;;;;;;;7.63;2.80;;;;;;;14.09;73.67;100661.09;5013012;28;20410;-41
2022/11/07 00:43:24;;;;;;;6.07;2.80;;;;;;;14.44;72.07;100666.22;5013781;28;20034;-45
2022/11/07 00:45:50;;;;;;;11.23;2.80;;;;;;;14.07;73.51;100670.75;5014441;28;20079;-43
2022/11/07 00:48:15;;;;;;;7.03;2.63;;;;;;;14.29;72.72;100670.63;5014842;28;20034;-42
2022/11/07 00:50:40;;;;;;;8.40;2.83;;;;;;;13.98;73.89;100672.50;5014515;28;20022;-41
2022/11/07 00:53:06;;;;;;;6.85;2.60;;;;;;;14.11;73.02;100667.22;5016133;28;20022;-44
2022/11/07 00:55:32;;;;;;;9.00;2.30;;;;;;;14.08;73.24;100671.63;5017187;28;20105;-43
2022/11/07 00:57:58;;;;;;;8.52;2.83;;;;;;;13.93;74.06;100674.28;5015390;28;20120;-41
2022/11/07 01:00:23;;;;;;;9.95;2.42;;;;;;;13.88;74.53;100676.91;5013419;28;20065;-42
2022/11/07 01:05:09;;;;;;;9.68;2.45;;;;;;;14.17;73.09;100682.91;5013776;28;20051;-41
2022/11/07 01:05:34;;;;;;;9.55;2.45;;;;;;;14.05;74.17;100687.34;5013998;28;20040;-41
2022/11/07 01:07:59;;;;;;;7.78;2.40;;;;;;;14.19;73.60;100699.53;5013598;28;20025;-41
2022/11/07 01:10:24;;;;;;;8.05;2.38;;;;;;;14.34;73.24;100697.69;5014618;28;20026;-44
2022/11/07 01:12:50;;;;;;;9.65;2.55;;;;;;;14.13;73.73;100696.06;5013955;28;20022;-43
2022/11/07 01:15:15;;;;;;;8.05;2.33;;;;;;;14.30;73.86;100707.34;5013880;28;20490;-43
2022/11/07 01:17:41;;;;;;;10.07;2.30;;;;;;;14.26;73.88;100700.38;5014675;28;20488;-40
2022/11/07 01:20:07;;;;;;;7.72;2.10;;;;;;;14.66;72.33;100695.81;5014228;28;20029;-43
2022/11/07 01:22:32;;;;;;;7.10;2.40;;;;;;;14.40;73.00;100723.94;5013560;28;20111;-42
2022/11/07 01:24:57;;;;;;;12.32;2.83;;;;;;;14.08;74.80;100727.53;5013258;28;20042;-42
2022/11/07 01:27:23;;;;;;;14.10;3.13;;;;;;;14.25;74.67;100718.72;5013536;28;20108;-43
2022/11/07 01:29:48;;;;;;;11.25;2.90;;;;;;;14.12;74.46;100705.66;5013020;28;20151;-41
2022/11/07 01:32:13;;;;;;;10.30;2.50;;;;;;;14.26;74.29;100713.50;5013758;28;20032;-43
2022/11/07 01:34:38;;;;;;;12.75;2.58;;;;;;;14.18;74.79;100710.00;5013566;28;20470;-42
2022/11/07 01:37:04;;;;;;;11.02;3.00;;;;;;;14.08;74.94;100710.94;5013692;28;20092;-43
2022/11/07 01:39:29;;;;;;;8.15;2.80;;;;;;;14.21;74.29;100705.63;5014139;28;20136;-41
2022/11/07 01:41:54;;;;;;;10.27;2.67;;;;;;;14.21;74.18;100725.72;5013322;28;20041;-42
2022/11/07 01:44:19;;;;;;;15.93;3.05;;;;;;;14.25;73.31;100714.34;5012966;28;20037;-42
2022/11/07 01:46:46;;;;;;;10.60;2.65;;;;;;;14.15;74.18;100715.25;5012717;28;20029;-42
2022/11/07 01:49:24;;;;;;;14.70;3.08;;;;;;;14.08;74.69;100716.19;5011853;28;20422;-42
2022/11/07 01:52:04;;;;;;;9.63;2.90;;;;;;;14.23;73.81;100723.97;5011232;28;20034;-44
2022/11/07 01:54:47;;;;;;;6.63;2.30;;;;;;;14.15;73.95;100723.13;5011372;28;20022;-41
2022/11/07 01:57:19;;;;;;;8.50;2.58;;;;;;;14.16;74.46;100717.00;5011363;28;20030;-42
2022/11/07 01:59:45;;;;;;;10.63;2.80;;;;;;;14.15;74.13;100707.38;5011297;28;20060;-42
2022/11/07 02:02:10;;;;;;;10.57;3.13;;;;;;;13.97;74.43;100723.19;5011148;28;20053;-42
2022/11/07 02:04:36;;;;;;;8.13;2.67;;;;;;;13.90;74.82;100717.13;5011055;28;20021;-43
2022/11/07 02:07:08;;;;;;;10.85;2.78;;;;;;;13.99;74.23;100714.44;5011389;28;20041;-41
2022/11/07 02:09:33;;;;;;;9.15;2.60;;;;;;;13.96;74.60;100718.84;5011236;28;20033;-42
2022/11/07 02:11:59;;;;;;;10.15;2.90;;;;;;;13.88;75.05;100717.97;5010886;28;20486;-40
2022/11/07 02:14:26;;;;;;;8.60;2.58;;;;;;;14.13;74.13;100720.53;5010426;28;20064;-42
2022/11/07 02:16:51;;;;;;;11.27;2.60;;;;;;;13.76;75.41;100730.25;5010729;28;20120;-39
2022/11/07 02:19:34;;;;;;;8.57;2.45;;;;;;;14.10;74.12;100727.50;5011225;28;20109;-44
2022/11/07 02:22:06;;;;;;;12.38;2.78;;;;;;;14.12;74.02;100733.63;5010818;28;20017;-43
2022/11/07 02:24:34;;;;;;;9.43;2.70;;;;;;;14.14;74.14;100732.75;5010505;28;20021;-40
2022/11/07 02:27:04;;;;;;;5.78;2.17;;;;;;;14.19;74.28;100735.34;5010520;28;20014;-42
2022/11/07 02:29:32;;;;;;;9.30;2.30;;;;;;;14.15;74.06;100741.47;5010662;28;20513;-42
2022/11/07 02:32:03;;;;;;;10.02;2.40;;;;;;;14.18;74.21;100736.22;5010583;28;20029;-44
2022/11/07 02:34:28;;;;;;;10.15;2.55;;;;;;;14.21;74.19;100738.81;5010687;28;20099;-44
2022/11/07 02:36:54;;;;;;;9.38;2.60;;;;;;;14.30;73.67;100736.19;5010669;28;20022;-41
2022/11/07 02:39:20;;;;;;;8.40;2.50;;;;;;;14.44;73.14;100726.56;5010530;28;20478;-43
2022/11/07 02:41:46;;;;;;;8.10;2.38;;;;;;;14.25;73.77;100724.84;5010190;28;20041;-43
2022/11/07 02:44:11;;;;;;;10.77;2.67;;;;;;;14.27;73.66;100725.72;5010506;28;20026;-42
2022/11/07 02:46:38;;;;;;;9.02;2.42;;;;;;;14.47;73.14;100739.63;5010930;28;20021;-42
2022/11/07 02:49:03;;;;;;;9.65;2.72;;;;;;;14.13;74.57;100754.59;5010691;28;20067;-42
2022/11/07 02:51:29;;;;;;;9.95;2.50;;;;;;;14.18;74.31;100744.09;5010474;28;20018;-44
2022/11/07 02:53:54;;;;;;;7.32;2.40;;;;;;;14.51;73.21;100730.91;4993290;28;20363;-43
2022/11/07 02:56:20;;;;;;;10.32;2.83;;;;;;;14.51;73.30;100735.28;5010829;28;20033;-44
2022/11/07 02:58:46;;;;;;;8.98;2.63;;;;;;;14.52;73.25;100743.09;5010724;28;20105;-42
2022/11/07 03:01:11;;;;;;;8.27;2.60;;;;;;;14.46;73.06;100742.25;5010385;28;20451;-42
2022/11/07 03:03:42;;;;;;;10.23;2.97;;;;;;;14.34;74.13;100739.66;5010430;28;20509;-42
2022/11/07 03:06:10;;;;;;;9.82;2.50;;;;;;;13.98;75.06;100749.38;5010508;28;20022;-41
2022/11/07 03:08:35;;;;;;;8.95;2.80;;;;;;;14.17;74.47;100731.84;5010762;28;20030;-42
2022/11/07 03:11:01;;;;;;;10.65;2.63;;;;;;;13.97;75.40;100738.91;5010321;28;20478;-41
2022/11/07 03:13:26;;;;;;;8.15;2.70;;;;;;;14.19;74.31;100740.59;5011139;28;20032;-39
2022/11/07 03:15:52;;;;;;;7.53;2.45;;;;;;;14.25;74.08;100737.09;5012670;28;20034;-43
2022/11/07 03:18:18;;;;;;;8.30;2.33;;;;;;;14.47;73.57;100739.63;5011878;28;20029;-45
2022/11/07 03:20:43;;;;;;;9.93;2.55;;;;;;;14.54;72.87;100733.47;5010324;28;20442;-41
2022/11/07 03:23:08;;;;;;;10.82;2.40;;;;;;;14.33;73.17;100736.19;5010546;28;20022;-41
2022/11/07 03:25:34;;;;;;;8.27;1.95;;;;;;;14.40;73.09;100737.91;5015278;28;20029;-40
2022/11/07 03:27:59;;;;;;;6.97;2.05;;;;;;;14.43;72.77;100729.16;5019467;28;20026;-41
2022/11/07 03:30:24;;;;;;;5.65;2.13;;;;;;;14.38;72.83;100731.81;5016425;28;20030;-44
2022/11/07 03:32:51;;;;;;;9.45;2.05;;;;;;;14.45;73.05;100730.06;5014843;28;20112;-44
2022/11/07 03:35:17;;;;;;;7.88;2.00;;;;;;;14.28;73.39;100732.69;5015200;28;20037;-44
2022/11/07 03:37:47;;;;;;;8.40;2.20;;;;;;;14.23;73.28;100729.22;5015481;28;20026;-43
2022/11/07 03:40:13;;;;;;;7.85;2.13;;;;;;;14.48;72.00;100724.78;5015386;28;20026;-41
2022/11/07 03:42:39;;;;;;;10.60;2.00;;;;;;;14.31;73.01;100731.81;5016093;28;20029;-40
2022/11/07 03:45:06;;;;;;;10.55;1.88;;;;;;;14.44;72.52;100739.66;5016359;28;20052;-44
2022/11/07 03:47:36;;;;;;;10.65;2.08;;;;;;;14.26;73.43;100733.59;5017119;28;20041;-43
2022/11/07 03:50:02;;;;;;;9.32;2.42;;;;;;;14.41;73.17;100736.16;5017903;28;20057;-43
2022/11/07 03:52:28;;;;;;;7.45;2.35;;;;;;;14.59;72.72;100726.47;5015865;28;20095;-44
2022/11/07 03:54:53;;;;;;;8.20;2.30;;;;;;;14.54;73.12;100735.22;5013667;28;20038;-45
2022/11/07 03:57:18;;;;;;;15.48;2.40;;;;;;;14.45;73.24;100745.78;5013838;28;20025;-42
2022/11/07 03:59:44;;;;;;;6.18;2.20;;;;;;;14.48;73.29;100740.50;5014110;28;20018;-42
2022/11/07 04:02:09;;;;;;;10.18;2.33;;;;;;;14.53;73.30;100738.72;5013507;28;20654;-42
2022/11/07 04:04:34;;;;;;;11.82;2.40;;;;;;;14.65;72.51;100724.69;5013681;28;20357;-44
2022/11/07 04:06:59;;;;;;;12.32;2.30;;;;;;;14.43;72.85;100737.91;5013828;28;20095;-40
2022/11/07 04:09:25;;;;;;;9.43;2.40;;;;;;;14.55;73.12;100731.75;5014893;28;20533;-44
2022/11/07 04:17:18;;;;;;;12.77;2.70;;;;;;;14.30;73.08;100753.66;5016223;28;20513;-40
2022/11/07 04:19:45;;;;;;;10.18;2.25;;;;;;;14.48;72.93;100736.13;5013118;28;20026;-40
2022/11/07 04:22:11;;;;;;;11.65;2.40;;;;;;;14.70;72.29;100747.38;5013208;28;20026;-40
2022/11/07 04:24:36;;;;;;;12.45;2.50;;;;;;;14.68;71.96;100749.16;5013063;28;20386;-42
2022/11/07 04:29:45;;;;;;;19.50;2.95;;;;;;;14.46;73.07;100737.00;5013401;28;20521;-41
2022/11/07 04:32:10;;;;;;;13.02;2.47;;;;;;;14.76;71.74;100726.34;5012564;28;20025;-45
2022/11/07 04:34:36;;;;;;;11.90;2.20;;;;;;;14.70;71.82;100729.00;5012756;28;20171;-42
2022/11/07 04:37:01;;;;;;;9.60;2.28;;;;;;;14.78;71.37;100729.84;5012644;28;20037;-40
2022/11/07 04:39:27;;;;;;;8.77;2.72;;;;;;;14.65;72.01;100730.78;5013166;28;20055;-44
2022/11/07 04:41:53;;;;;;;12.57;2.80;;;;;;;14.32;72.49;100733.56;5012911;28;20040;-39
2022/11/07 04:44:18;;;;;;;9.43;2.40;;;;;;;14.58;72.09;100742.19;5013379;28;20101;-41
2022/11/07 04:46:43;;;;;;;11.43;3.00;;;;;;;14.58;71.65;100739.56;5012579;28;20741;-43
2022/11/07 04:49:09;;;;;;;8.82;2.40;;;;;;;14.85;71.21;100739.44;5012987;28;20497;-41
2022/11/07 04:51:41;;;;;;;11.82;2.50;;;;;;;14.80;71.36;100749.09;5012415;28;20026;-39
2022/11/07 04:54:10;;;;;;;9.60;2.47;;;;;;;14.75;71.63;100739.50;5012632;28;20032;-39
2022/11/07 04:56:35;;;;;;;10.13;2.20;;;;;;;14.93;70.74;100755.16;5012407;28;20026;-43
2022/11/07 04:59:01;;;;;;;11.95;2.30;;;;;;;14.36;72.99;100751.91;5012385;28;20370;-40
2022/11/07 05:01:26;;;;;;;9.65;2.30;;;;;;;14.55;72.41;100743.09;5011993;28;20063;-43
2022/11/07 05:03:51;;;;;;;16.90;2.83;;;;;;;14.75;71.87;100747.38;5012675;28;20032;-43
2022/11/07 05:06:17;;;;;;;12.15;2.30;;;;;;;14.50;72.33;100749.25;5012577;28;20414;-40
2022/11/07 05:08:43;;;;;;;13.23;2.53;;;;;;;14.72;72.03;100740.38;5013225;28;20093;-39
2022/11/07 05:11:08;;;;;;;10.38;2.40;;;;;;;14.74;71.46;100746.50;5013903;28;20017;-41
2022/11/07 05:13:33;;;;;;;11.48;2.47;;;;;;;14.83;71.22;100738.56;5015705;28;20088;-40
2022/11/07 05:15:59;;;;;;;10.40;2.20;;;;;;;14.52;72.19;100750.97;5014496;28;20065;-39
2022/11/07 05:18:24;;;;;;;14.68;2.38;;;;;;;14.66;71.90;100747.41;5012119;28;20562;-41
2022/11/07 05:20:49;;;;;;;12.02;2.30;;;;;;;14.53;71.92;100750.09;5012018;28;20025;-40
2022/11/07 05:23:16;;;;;;;12.98;2.47;;;;;;;14.73;71.48;100754.38;5012226;28;20493;-40
2022/11/07 05:25:52;;;;;;;10.05;2.17;;;;;;;14.60;71.96;100766.69;5012759;28;20116;-40
2022/11/07 05:28:23;;;;;;;11.38;2.30;;;;;;;14.58;72.23;100755.31;5013098;28;20029;-40
2022/11/07 05:30:48;;;;;;;10.82;2.30;;;;;;;14.66;72.02;100761.41;5012690;28;20021;-39
2022/11/07 05:33:16;;;;;;;13.48;2.67;;;;;;;14.49;72.12;100758.88;5012584;28;20088;-40
2022/11/07 05:35:41;;;;;;;10.90;2.63;;;;;;;14.91;70.84;100752.53;5011820;28;20026;-38
2022/11/07 05:38:07;;;;;;;13.68;2.58;;;;;;;14.94;70.75;100747.22;5012060;28;20433;-38
2022/11/07 05:40:34;;;;;;;10.10;2.45;;;;;;;14.88;70.78;100749.91;5011806;28;20052;-38
2022/11/07 05:43:11;;;;;;;10.35;2.55;;;;;;;14.81;70.89;100761.34;5011814;28;20041;-40
2022/11/07 05:45:37;;;;;;;11.05;2.47;;;;;;;15.01;70.45;100762.06;5011878;28;20026;-38
2022/11/07 05:48:06;;;;;;;11.93;2.38;;;;;;;14.64;71.67;100755.28;5011256;28;20076;-39
2022/11/07 05:50:31;;;;;;;11.15;2.50;;;;;;;15.01;70.61;100763.81;5011302;28;20029;-39
2022/11/07 05:52:56;;;;;;;12.15;2.70;;;;;;;14.80;71.34;100763.97;5012224;28;20404;-39
2022/11/07 05:55:23;;;;;;;10.63;2.58;;;;;;;15.20;70.04;100767.19;5012426;28;20061;-39
2022/11/07 05:57:49;;;;;;;15.07;2.55;;;;;;;15.22;70.00;100762.81;5013648;28;20033;-39
2022/11/07 06:00:15;;;;;;;13.45;3.10;;;;;;;15.01;70.29;100762.06;5012300;28;20033;-40
2022/11/07 06:02:41;;;;;;;15.63;3.00;;;;;;;14.66;71.28;100782.41;5011559;28;20398;-42
2022/11/07 06:05:06;;;;;;;10.52;2.75;;;;;;;14.80;71.80;100767.47;5011463;28;20026;-39
2022/11/07 06:07:36;;;;;;;10.77;3.10;;;;;;;14.73;71.65;100778.00;5011777;28;20069;-41
2022/11/07 06:10:03;;;;;;;11.85;3.10;;;;;;;14.76;72.10;100778.84;5011585;28;20379;-41
2022/11/07 06:12:28;;;;;;;14.32;3.20;;;;;;;14.96;71.18;100762.97;5011319;28;20444;-40
2022/11/07 06:14:54;;;;;;;10.15;3.15;;;;;;;14.75;71.41;100766.63;5011076;28;20072;-38
2022/11/07 06:17:19;;;;;;;10.73;3.10;;;;;;;14.48;72.78;100772.00;5011118;28;20022;-38
2022/11/07 06:19:44;;;;;;;10.18;2.78;;;;;;;14.90;71.34;100773.53;5011678;28;20022;-40
2022/11/07 06:22:10;;;;;;;11.05;3.10;;;;;;;15.08;70.66;100765.53;5011424;28;20037;-41
2022/11/07 06:24:35;;;;;;;12.52;3.40;;;;;;;14.89;71.26;100770.03;5011496;28;20030;-38
2022/11/07 06:27:00;;;;;;;10.00;3.22;;;;;;;14.74;71.48;100769.25;5011353;28;20415;-39
2022/11/07 06:29:26;;;;;;;12.60;3.22;;;;;;;15.10;70.30;100761.16;5011499;28;20030;-38
2022/11/07 06:31:51;;;;;;;10.40;3.30;;;;;;;15.31;69.07;100766.22;5010367;28;20021;-38
2022/11/07 06:34:16;;;;;;;11.35;2.90;;;;;;;15.07;69.83;100766.41;5012458;28;20041;-40
2022/11/07 06:36:42;;;;;;;13.48;3.00;;;;;;;14.85;70.77;100783.19;5012161;28;20084;-38
2022/11/07 06:39:07;;;;;;;11.40;2.63;;;;;;;14.66;71.44;100763.16;5012269;28;20033;-41
2022/11/07 06:41:32;;;;;;;9.75;2.72;;;;;;;14.72;71.07;100771.00;5013082;28;20030;-39
2022/11/07 06:43:57;;;;;;;11.93;2.95;;;;;;;14.69;71.63;100777.16;5014235;28;20030;-38
2022/11/07 06:46:24;;;;;;;12.55;2.55;;;;;;;14.46;71.93;100782.47;5014229;28;20022;-41
2022/11/07 06:48:49;;;;;;;13.48;2.72;;;;;;;14.69;71.71;100778.91;5013106;28;20030;-41
2022/11/07 06:51:14;;;;;;;12.82;2.53;;;;;;;14.67;71.19;100768.41;5011024;28;20662;-39
2022/11/07 06:53:40;;;;;;;10.20;2.63;;;;;;;14.59;71.57;100776.31;5010976;28;20026;-39
2022/11/07 06:56:12;;;;;;;9.35;2.50;;;;;;;14.63;71.10;100765.81;5010749;28;20057;-38
2022/11/07 06:58:38;;;;;;;11.57;2.50;;;;;;;14.86;70.19;100775.31;5013939;28;20116;-41
2022/11/07 07:01:05;;;;;;;11.00;2.47;;;;;;;14.62;71.48;100780.69;5022583;28;20053;-38
2022/11/07 07:03:30;;;;;;;10.70;2.28;;;;;;;14.68;71.17;100782.41;5018303;28;20407;-43
2022/11/07 07:06:03;;;;;;;11.82;2.20;;;;;;;14.88;70.29;100780.56;5016878;28;20026;-40
2022/11/07 07:08:29;;;;;;;9.05;2.33;;;;;;;15.25;69.13;100778.53;5016783;28;20029;-36
2022/11/07 07:10:55;;;;;;;11.48;2.42;;;;;;;14.84;70.51;100778.81;5016808;28;20022;-43
2022/11/07 07:13:20;;;;;;;7.20;2.10;;;;;;;14.99;70.42;100794.47;5017406;28;20482;-40
2022/11/07 07:15:53;;;;;;;11.75;2.60;;;;;;;14.82;70.71;100793.72;5016787;28;20036;-41
2022/11/07 07:18:19;;;;;;;8.45;2.20;;;;;;;14.98;70.50;100790.97;5017403;28;20449;-38
2022/11/07 07:20:45;;;;;;;8.07;2.25;;;;;;;14.65;70.95;100798.16;5015796;28;20025;-39
2022/11/07 07:23:11;;;;;;;10.20;2.60;;;;;;;14.61;71.52;100808.66;5017501;28;20025;-41
2022/11/07 07:25:36;;;;;;;6.80;2.08;;;;;;;15.18;69.95;100811.00;5017226;28;20068;-38
2022/11/07 07:28:01;;;;;;;8.52;2.20;;;;;;;14.66;71.29;100819.13;5017038;28;20018;-42
2022/11/07 07:30:26;;;;;;;10.30;2.30;;;;;;;14.69;71.20;100813.88;5016722;28;20113;-38
2022/11/07 07:32:52;;;;;;;11.63;2.13;;;;;;;14.88;71.15;100815.53;5016589;28;20029;-40
2022/11/07 07:35:17;;;;;;;7.93;2.35;;;;;;;15.20;70.03;100831.09;5016915;28;20017;-38
2022/11/07 07:37:42;;;;;;;12.00;2.28;;;;;;;15.18;70.28;100825.00;5016876;28;20045;-39
2022/11/07 07:40:09;;;;;;;10.70;2.28;;;;;;;15.36;69.58;100835.38;5016252;28;20029;-42
2022/11/07 07:42:40;;;;;;;12.68;2.75;;;;;;;14.87;70.94;100841.81;5016884;28;20025;-38
2022/11/07 07:45:05;;;;;;;13.07;2.95;;;;;;;15.00;71.21;100836.47;5017034;28;20022;-38
2022/11/07 07:47:31;;;;;;;10.02;2.47;;;;;;;15.01;70.94;100840.84;5017318;28;20037;-38
2022/11/07 07:49:56;;;;;;;12.02;2.45;;;;;;;15.14;70.66;100840.75;5017119;28;20057;-41
2022/11/07 07:52:21;;;;;;;9.75;2.42;;;;;;;15.03;70.49;100835.59;5016155;28;20121;-41
2022/11/07 07:54:47;;;;;;;13.27;2.67;;;;;;;15.17;70.64;100844.25;5016759;28;20022;-39
2022/11/07 07:57:12;;;;;;;8.77;2.17;;;;;;;15.45;69.95;100847.56;5016774;28;20060;-40
2022/11/07 07:59:37;;;;;;;10.45;2.60;;;;;;;15.47;69.90;100848.44;5016758;28;20033;-38
2022/11/07 08:02:03;;;;;;;9.95;2.40;;;;;;;15.61;69.18;100848.38;5016309;28;20088;-38
2022/11/07 08:04:28;;;;;;;8.57;2.35;;;;;;;15.30;70.18;100855.56;5016541;28;20038;-38
2022/11/07 08:06:53;;;;;;;9.82;2.30;;;;;;;15.51;69.16;100850.16;5016815;28;20026;-40
2022/11/07 08:09:18;;;;;;;8.38;2.30;;;;;;;15.36;69.96;100858.16;5016810;28;20034;-39
2022/11/07 08:11:44;;;;;;;9.15;2.67;;;;;;;15.69;69.00;100873.72;5013482;28;20393;-39
2022/11/07 08:14:10;;;;;;;9.82;2.42;;;;;;;16.01;68.27;100876.09;5013485;28;20049;-39
2022/11/07 08:16:35;;;;;;;9.25;2.47;;;;;;;15.85;68.24;100881.50;5013622;28;20044;-40
2022/11/07 08:19:00;;;;;;;14.65;2.88;;;;;;;16.06;67.72;100886.56;5013308;28;20120;-39
2022/11/07 08:21:26;;;;;;;9.98;2.65;;;;;;;15.94;67.71;100873.50;5013410;28;20025;-37
2022/11/07 08:23:53;;;;;;;11.68;3.30;;;;;;;15.73;68.64;100874.56;5013989;28;20110;-38
2022/11/07 08:26:19;;;;;;;10.93;2.85;;;;;;;15.73;68.52;100880.72;5013265;28;20018;-40
2022/11/07 08:28:44;;;;;;;8.95;2.80;;;;;;;15.31;69.91;100879.19;5013845;28;20398;-38
2022/11/07 08:31:13;;;;;;;9.68;2.60;;;;;;;15.90;68.40;100884.94;5014724;28;20026;-41
2022/11/07 08:33:38;;;;;;;12.50;2.80;;;;;;;15.81;68.51;100883.25;5015767;28;20493;-35
2022/11/07 08:36:05;;;;;;;9.40;2.60;;;;;;;15.66;69.32;100891.28;5016200;28;20026;-38
2022/11/07 08:38:33;;;;;;;10.93;2.70;;;;;;;15.68;69.02;100885.09;5013240;28;20042;-39
2022/11/07 08:40:58;;;;;;;12.30;3.00;;;;;;;16.05;68.15;100890.94;5014480;28;20069;-45
2022/11/07 08:43:24;;;;;;;7.32;2.33;;;;;;;15.83;68.27;100894.63;5015894;28;20022;-43
2022/11/07 08:45:51;;;;;;;11.38;2.40;;;;;;;16.16;67.78;100893.50;5014692;28;20441;-39
2022/11/07 08:48:16;;;;;;;11.10;2.50;;;;;;;15.52;69.53;100900.97;5013683;28;20437;-39
2022/11/07 08:50:42;;;;;;;11.73;2.47;;;;;;;15.87;68.81;100906.88;5013008;28;20494;-39
2022/11/07 08:53:08;;;;;;;8.10;2.35;;;;;;;15.94;68.47;100902.44;5013205;28;20052;-39
2022/11/07 08:55:34;;;;;;;11.30;2.42;;;;;;;15.98;68.27;100905.00;5013000;28;20429;-36
2022/11/07 08:58:04;;;;;;;12.90;2.80;;;;;;;15.85;69.23;100908.66;5012824;28;20474;-38
2022/11/07 09:00:30;;;;;;;9.77;2.30;;;;;;;16.38;67.66;100913.44;5012485;28;20101;-38
2022/11/07 09:02:55;;;;;;;13.02;2.50;;;;;;;16.38;67.84;100917.81;5012819;28;20133;-38
2022/11/07 09:05:21;;;;;;;10.93;2.30;;;;;;;16.43;67.96;100924.78;5012689;28;20032;-38
2022/11/07 09:07:46;;;;;;;10.82;2.70;;;;;;;16.26;67.34;100928.47;5011609;28;20022;-39
2022/11/07 09:10:12;;;;;;;11.57;2.63;;;;;;;16.14;68.32;100926.81;5012450;28;20439;-39
2022/11/07 09:12:45;;;;;;;10.02;2.50;;;;;;;16.40;67.71;100929.22;5012499;28;20061;-41
2022/11/07 09:15:10;;;;;;;10.35;2.38;;;;;;;16.50;67.13;100922.97;5034171;23;20029;-43
2022/11/07 09:17:35;;;;;;;11.38;3.00;;;;;;;16.33;67.89;100935.41;5011391;28;20355;-45
2022/11/07 09:20:00;;;;;;;8.82;2.70;;;;;;;16.44;67.23;100931.81;4994038;28;20076;-45
2022/11/07 09:22:26;;;;;;;10.63;2.65;;;;;;;15.84;69.29;100930.56;5011421;28;20034;-44
2022/11/07 09:24:52;;;;;;;11.23;3.08;;;;;;;15.78;70.39;100935.88;5011496;28;20034;-43
2022/11/07 09:27:17;;;;;;;12.13;2.70;;;;;;;15.89;70.39;100941.03;4992069;28;20041;-45
2022/11/07 09:29:42;;;;;;;12.93;3.00;;;;;;;15.86;70.54;100935.81;4992096;28;20068;-46
2022/11/07 09:32:08;;;;;;;12.48;2.70;;;;;;;16.15;69.71;100926.81;4992124;28;20479;-44
2022/11/07 09:34:33;;;;;;;11.35;2.72;;;;;;;16.34;70.01;100932.78;4974704;28;20390;-47
2022/11/07 09:36:58;;;;;;;12.90;2.85;;;;;;;15.99;69.16;100940.94;4992527;28;20034;-45
2022/11/07 09:39:23;;;;;;;10.80;2.78;;;;;;;16.15;69.08;100933.81;4992347;28;20022;-46
2022/11/07 09:41:54;;;;;;;9.05;2.40;;;;;;;16.68;67.69;100935.97;4974502;28;20026;-44
2022/11/07 09:44:25;;;;;;;8.48;2.20;;;;;;;16.24;68.99;100946.88;4992079;28;20395;-42
2022/11/07 09:47:27;;;;;;;9.50;2.60;;;;;;;16.06;69.20;100953.16;4991903;28;20061;-45
2022/11/07 09:50:00;;;;;;;8.30;2.35;;;;;;;16.79;67.57;100959.53;4991796;28;20482;-44
2022/11/07 09:52:46;;;;;;;9.35;2.38;;;;;;;16.52;67.85;100960.69;4991371;28;20022;-44
2022/11/07 09:55:21;;;;;;;12.27;2.47;;;;;;;16.44;68.66;100951.97;4991196;28;20384;-45
2022/11/07 09:57:49;;;;;;;12.65;2.63;;;;;;;16.22;69.03;100948.69;4991173;28;20110;-44
2022/11/07 10:00:17;;;;;;;12.30;2.70;;;;;;;16.45;68.49;100957.22;4991249;28;20036;-44
2022/11/07 10:02:46;;;;;;;10.30;2.63;;;;;;;16.26;68.89;100958.28;4991166;28;20022;-44
2022/11/07 10:05:15;;;;;;;13.57;2.75;;;;;;;16.96;67.18;100958.47;4991230;28;20040;-47
2022/11/07 10:07:43;;;;;;;11.57;2.58;;;;;;;16.90;67.20;100965.56;4991068;28;20021;-44
2022/11/07 10:10:21;;;;;;;13.13;2.50;;;;;;;16.92;67.06;100961.16;4990761;28;20471;-45
2022/11/07 10:12:56;;;;;;;12.18;2.80;;;;;;;16.83;67.06;100964.75;4989810;28;20081;-44
2022/11/07 10:15:40;;;;;;;12.45;3.00;;;;;;;16.98;66.78;100967.22;4990553;28;20037;-46
2022/11/07 10:18:23;;;;;;;11.00;2.60;;;;;;;17.25;65.86;100965.16;4991062;28;20084;-47
2022/11/07 10:21:12;;;;;;;9.30;2.50;;;;;;;17.29;65.38;100962.47;4990493;28;20613;-44
2022/11/07 10:24:01;;;;;;;11.82;2.50;;;;;;;17.39;65.00;100963.22;4990808;28;20395;-46
2022/11/07 10:26:28;;;;;;;11.52;2.42;;;;;;;17.16;66.13;100965.28;4990653;28;20022;-46
2022/11/07 10:29:00;;;;;;;9.57;2.53;;;;;;;17.19;65.04;100971.41;4990824;28;20022;-41
2022/11/07 10:31:37;;;;;;;10.40;2.50;;;;;;;17.55;64.92;100962.13;4990538;28;20520;-43
2022/11/07 10:34:14;;;;;;;9.25;2.40;;;;;;;17.48;64.61;100972.78;4990540;28;20026;-44
2022/11/07 10:36:39;;;;;;;11.15;2.42;;;;;;;17.52;64.40;100974.47;4990430;28;20434;-44
2022/11/07 10:39:14;;;;;;;8.55;2.30;;;;;;;17.59;63.94;100970.84;4990447;28;20038;-44
2022/11/07 10:41:42;;;;;;;8.98;2.42;;;;;;;17.27;64.81;100979.19;4972834;28;20537;-44
2022/11/07 10:44:19;;;;;;;10.55;2.53;;;;;;;17.48;64.48;100976.28;4990478;28;20223;-45
2022/11/07 10:46:46;;;;;;;11.82;2.38;;;;;;;17.57;64.28;100983.19;4990287;28;20386;-45
2022/11/07 10:49:28;;;;;;;13.75;2.70;;;;;;;17.57;64.63;100988.44;4990477;28;20022;-45
2022/11/07 10:52:05;;;;;;;8.07;2.10;;;;;;;17.30;64.99;100987.94;4990382;28;20034;-43
2022/11/07 10:54:31;;;;;;;9.32;2.28;;;;;;;17.36;64.70;100992.25;4973066;28;20110;-46
2022/11/07 10:57:06;;;;;;;9.48;2.17;;;;;;;17.60;64.64;100991.97;4990234;28;20129;-45
2022/11/07 10:59:33;;;;;;;10.38;2.30;;;;;;;17.65;64.47;100989.25;4990622;28;20091;-45
2022/11/07 11:02:00;;;;;;;8.75;2.40;;;;;;;17.20;65.65;100994.19;4990179;28;20105;-45
2022/11/07 11:04:31;;;;;;;12.98;2.38;;;;;;;17.59;65.12;100989.31;4990594;28;20026;-46
2022/11/07 11:07:03;;;;;;;11.65;2.63;;;;;;;17.37;66.24;100999.28;4989078;28;20076;-46
2022/11/07 11:09:30;;;;;;;11.98;2.80;;;;;;;17.06;67.23;100987.34;4990542;28;20030;-44
2022/11/07 11:11:56;;;;;;;11.23;2.22;;;;;;;17.00;68.00;100978.63;4990161;28;20034;-46
2022/11/07 11:14:22;;;;;;;11.68;2.70;;;;;;;17.17;68.36;100990.72;4990592;28;20037;-44
2022/11/07 11:16:54;;;;;;;11.25;3.13;;;;;;;17.19;68.24;100967.88;4990660;28;20267;-44
2022/11/07 11:19:32;;;;;;;11.82;2.78;;;;;;;17.27;67.81;100966.88;4990513;28;20454;-45
2022/11/07 11:21:58;;;;;;;10.73;2.90;;;;;;;17.27;67.57;100966.00;4990156;28;20030;-44
2022/11/07 11:24:31;;;;;;;12.25;2.80;;;;;;;17.11;67.95;100969.72;4991161;28;20438;-44
2022/11/07 11:27:14;;;;;;;12.80;3.00;;;;;;;17.27;66.97;100971.28;4990573;28;20438;-44
2022/11/07 11:29:46;;;;;;;14.65;3.13;;;;;;;17.01;67.67;100976.88;4990882;28;20073;-45